»·PEaware :: N6235B L52-L88

N6235B :: L52-L88

FLIGHT INFORMATION

Flight Status: Arrived
Operator: Privately registered:
United States
More flights under this callsign
Pilot: Jonathan B. (32222)
Aircraft: CESSNA 172 SKYHAWK
(C172)
More flights by this aircraft type
Origin: L52 Oceano Co
United States
Destination: L88 New Cuyama
United States
More flights between these airports :: More routes between these airports
Route: L52 WYNNR L88
File this flight plan on PilotEdge
Remarks:
Altitude:
(Current/Filed)
7,500ft
Speed:
(Current/Filed)
110kts
Departed: 28-Oct-20 05:48 AM
Arrived: 28-Oct-20 06:23 AM
Distance/Time
Traveled:
6878nm/0:35
Distance/Time
To Go:
Arrived

Flight Plot

Page will automatically refresh every two minutes.


Map Options




Map Legend


Flown Route
Filed Route
Departure Airport
Arrival Airport
Navaid (VOR, NDB)
Fix

Horizontal Profiles

Position Reports

Time Latitude Longitude Heading Altitude Ground
Speed
28-Oct-20 05:37 0.000408 0.013975 0 3ft 0kts
28-Oct-20 05:39 35.102153 -120.622308 16 18ft 0kts
28-Oct-20 05:40 35.102153 -120.622308 16 18ft 0kts
28-Oct-20 05:41 35.102153 -120.622308 16 18ft 0kts
28-Oct-20 05:42 35.102153 -120.622308 16 18ft 0kts
28-Oct-20 05:43 35.102178 -120.622227 106 19ft 5kts
28-Oct-20 05:44 35.101782 -120.622317 208 18ft 5kts
28-Oct-20 05:45 35.099987 -120.620370 124 17ft 11kts
28-Oct-20 05:46 35.099551 -120.619525 56 17ft 0kts
28-Oct-20 05:47 35.104063 -120.626992 300 98ft 73kts
28-Oct-20 05:48 35.096420 -120.643242 164 793ft 80kts
28-Oct-20 05:49 35.082216 -120.622032 127 1577ft 82kts
28-Oct-20 05:50 35.082189 -120.596442 67 2321ft 85kts
28-Oct-20 05:51 35.091810 -120.569562 67 3044ft 86kts
28-Oct-20 05:52 35.101502 -120.542514 67 3732ft 87kts
28-Oct-20 05:53 35.111343 -120.515049 67 4407ft 88kts
28-Oct-20 05:54 35.110062 -120.489328 134 5027ft 87kts
28-Oct-20 05:55 35.107926 -120.459832 89 5648ft 89kts
28-Oct-20 05:56 35.109285 -120.429395 88 6223ft 90kts
28-Oct-20 05:57 35.110580 -120.398496 88 6773ft 91kts
28-Oct-20 05:58 35.111820 -120.367255 88 7288ft 93kts
28-Oct-20 05:59 35.113181 -120.332340 88 7497ft 118kts
28-Oct-20 06:00 35.114779 -120.291520 88 7504ft 117kts
28-Oct-20 06:01 35.116313 -120.251545 88 7501ft 120kts
28-Oct-20 06:02 35.115479 -120.209980 106 7497ft 123kts
28-Oct-20 06:03 35.103066 -120.170946 113 7499ft 122kts
28-Oct-20 06:04 35.090074 -120.132296 113 7499ft 123kts
28-Oct-20 06:05 35.077217 -120.093895 113 7499ft 122kts
28-Oct-20 06:06 35.064274 -120.055314 113 7498ft 123kts
28-Oct-20 06:07 35.051428 -120.016834 113 7496ft 121kts
28-Oct-20 06:08 35.038503 -119.978131 113 7501ft 124kts
28-Oct-20 06:09 35.025411 -119.938952 113 7498ft 124kts
28-Oct-20 06:10 35.012292 -119.899747 113 7500ft 124kts
28-Oct-20 06:11 34.999160 -119.860466 113 7499ft 125kts
28-Oct-20 06:12 34.995748 -119.850230 113 7500ft 125kts
28-Oct-20 06:13 34.975463 -119.818884 153 7498ft 122kts
28-Oct-20 06:14 34.948249 -119.801278 153 6913ft 108kts
28-Oct-20 06:15 34.933203 -119.791535 152 6166ft 118kts
28-Oct-20 06:16 34.917416 -119.762707 112 4489ft 127kts
28-Oct-20 06:17 34.905821 -119.726807 112 3355ft 94kts
28-Oct-20 06:18 34.902668 -119.697135 73 3099ft 79kts
28-Oct-20 06:19 34.917959 -119.688592 357 3091ft 72kts
28-Oct-20 06:20 34.937253 -119.694325 293 2984ft 86kts
28-Oct-20 06:21 34.945987 -119.700425 110 2542ft 77kts
28-Oct-20 06:22 34.941283 -119.688448 300 2192ft 3kts
28-Oct-20 06:23 34.942275 -119.690060 300 2183ft 7kts
28-Oct-20 06:24 34.942611 -119.690258 109 2179ft 0kts
28-Oct-20 06:25 34.942611 -119.690258 109 2179ft 0kts
28-Oct-20 06:26 0.000408 0.013975 0 3ft 0kts
28-Oct-20 06:27 0.000408 0.013975 0 3ft 0kts
28-Oct-20 06:28 0.000408 0.013975 0 3ft 0kts
28-Oct-20 06:29 0.000408 0.013975 0 3ft 0kts
28-Oct-20 06:31 0.000408 0.013975 0 3ft 0kts
28-Oct-20 06:32 0.000408 0.013975 0 3ft 0kts
28-Oct-20 06:33 0.000408 0.013975 0 3ft 0kts
28-Oct-20 06:34 0.000408 0.013975 0 3ft 0kts
28-Oct-20 06:35 0.000408 0.013975 0 3ft 0kts
28-Oct-20 06:36 0.000408 0.013975 0 3ft 0kts
28-Oct-20 06:37 0.000408 0.013975 0 3ft 0kts
28-Oct-20 06:38 0.000408 0.013975 0 3ft 0kts

Navigation Log

Ident Type
Flight plan parsing failed, navigation log unavailable